sensor_id;sensor_type;location;lat;lon;timestamp;pressure;altitude;pressure_sealevel;temperature;humidity
6668;BME280;3370;47.712;9.082;2023-07-22T00:01:09;97045.66;;;17.63;71.89
6668;BME280;3370;47.712;9.082;2023-07-22T00:03:35;97046.94;;;17.58;72.38
6668;BME280;3370;47.712;9.082;2023-07-22T00:06:09;97055.09;;;17.53;72.37
6668;BME280;3370;47.712;9.082;2023-07-22T00:08:36;97050.91;;;17.51;72.28
6668;BME280;3370;47.712;9.082;2023-07-22T00:11:04;97048.44;;;17.49;72.73
6668;BME280;3370;47.712;9.082;2023-07-22T00:13:30;97048.06;;;17.42;73.42
6668;BME280;3370;47.712;9.082;2023-07-22T00:15:56;97042.69;;;17.33;74.48
6668;BME280;3370;47.712;9.082;2023-07-22T00:18:23;97037.84;;;17.28;74.97
6668;BME280;3370;47.712;9.082;2023-07-22T00:20:49;97041.34;;;17.27;74.97
6668;BME280;3370;47.712;9.082;2023-07-22T00:23:16;97037.13;;;17.26;75.10
6668;BME280;3370;47.712;9.082;2023-07-22T00:25:42;97036.50;;;17.22;75.49
6668;BME280;3370;47.712;9.082;2023-07-22T00:28:08;97038.50;;;17.19;74.84
6668;BME280;3370;47.712;9.082;2023-07-22T00:30:34;97034.38;;;17.28;73.56
6668;BME280;3370;47.712;9.082;2023-07-22T00:33:02;97031.06;;;17.25;73.73
6668;BME280;3370;47.712;9.082;2023-07-22T00:35:28;97027.66;;;17.25;73.18
6668;BME280;3370;47.712;9.082;2023-07-22T00:37:54;97025.28;;;17.22;72.98
6668;BME280;3370;47.712;9.082;2023-07-22T00:40:20;97026.44;;;17.18;73.03
6668;BME280;3370;47.712;9.082;2023-07-22T00:42:46;97016.41;;;17.13;73.13
6668;BME280;3370;47.712;9.082;2023-07-22T00:45:11;97017.03;;;17.04;73.84
6668;BME280;3370;47.712;9.082;2023-07-22T00:47:38;97020.59;;;17.03;73.67
6668;BME280;3370;47.712;9.082;2023-07-22T00:50:07;97016.22;;;17.03;73.03
6668;BME280;3370;47.712;9.082;2023-07-22T00:52:37;97006.38;;;16.96;74.09
6668;BME280;3370;47.712;9.082;2023-07-22T00:55:04;97013.75;;;16.89;73.57
6668;BME280;3370;47.712;9.082;2023-07-22T00:57:30;97012.34;;;16.85;73.47
6668;BME280;3370;47.712;9.082;2023-07-22T00:59:56;97010.88;;;16.81;73.52
6668;BME280;3370;47.712;9.082;2023-07-22T01:02:22;97014.38;;;16.80;73.42
6668;BME280;3370;47.712;9.082;2023-07-22T01:04:50;97023.13;;;16.79;74.06
6668;BME280;3370;47.712;9.082;2023-07-22T01:07:16;97020.88;;;16.61;74.45
6668;BME280;3370;47.712;9.082;2023-07-22T01:09:42;97024.19;;;16.63;74.75
6668;BME280;3370;47.712;9.082;2023-07-22T01:12:09;97020.16;;;16.59;74.64
6668;BME280;3370;47.712;9.082;2023-07-22T01:14:37;97026.31;;;16.45;75.30
6668;BME280;3370;47.712;9.082;2023-07-22T01:17:05;97027.34;;;16.43;75.80
6668;BME280;3370;47.712;9.082;2023-07-22T01:19:32;97020.59;;;16.40;75.28
6668;BME280;3370;47.712;9.082;2023-07-22T01:22:01;97025.91;;;16.52;74.65
6668;BME280;3370;47.712;9.082;2023-07-22T01:24:29;97022.56;;;16.37;74.80
6668;BME280;3370;47.712;9.082;2023-07-22T01:26:55;97012.94;;;16.13;75.33
6668;BME280;3370;47.712;9.082;2023-07-22T01:29:25;97020.00;;;15.85;76.59
6668;BME280;3370;47.712;9.082;2023-07-22T01:31:54;97021.34;;;15.78;76.94
6668;BME280;3370;47.712;9.082;2023-07-22T01:34:21;97013.38;;;15.81;76.82
6668;BME280;3370;47.712;9.082;2023-07-22T01:36:47;97025.19;;;15.85;76.98
6668;BME280;3370;47.712;9.082;2023-07-22T01:39:17;97016.78;;;15.95;76.40
6668;BME280;3370;47.712;9.082;2023-07-22T01:41:44;97009.81;;;15.82;77.14
6668;BME280;3370;47.712;9.082;2023-07-22T01:44:10;97022.47;;;15.74;77.74
6668;BME280;3370;47.712;9.082;2023-07-22T01:46:38;97028.97;;;15.67;77.59
6668;BME280;3370;47.712;9.082;2023-07-22T01:49:06;97033.34;;;15.66;77.57
6668;BME280;3370;47.712;9.082;2023-07-22T01:51:35;97028.91;;;15.41;79.30
6668;BME280;3370;47.712;9.082;2023-07-22T01:54:04;97029.09;;;15.38;79.71
6668;BME280;3370;47.712;9.082;2023-07-22T01:56:30;97022.25;;;15.37;80.33
6668;BME280;3370;47.712;9.082;2023-07-22T01:58:56;97021.88;;;15.43;80.20
6668;BME280;3370;47.712;9.082;2023-07-22T02:01:22;97021.06;;;15.43;80.51
6668;BME280;3370;47.712;9.082;2023-07-22T02:03:48;97021.06;;;15.43;80.58
6668;BME280;3370;47.712;9.082;2023-07-22T02:06:13;97016.69;;;15.43;80.31
6668;BME280;3370;47.712;9.082;2023-07-22T02:08:39;97025.19;;;15.45;80.11
6668;BME280;3370;47.712;9.082;2023-07-22T02:11:07;97033.09;;;15.57;78.50
6668;BME280;3370;47.712;9.082;2023-07-22T02:13:35;97033.09;;;15.57;78.53
6668;BME280;3370;47.712;9.082;2023-07-22T02:16:02;97033.66;;;15.34;79.21
6668;BME280;3370;47.712;9.082;2023-07-22T02:18:28;97032.09;;;15.32;79.43
6668;BME280;3370;47.712;9.082;2023-07-22T02:20:55;97027.63;;;15.21;80.33
6668;BME280;3370;47.712;9.082;2023-07-22T02:23:22;97030.38;;;15.18;80.29
6668;BME280;3370;47.712;9.082;2023-07-22T02:25:52;97042.78;;;15.13;80.64
6668;BME280;3370;47.712;9.082;2023-07-22T02:28:19;97045.56;;;15.10;80.88
6668;BME280;3370;47.712;9.082;2023-07-22T02:30:51;97039.75;;;15.06;81.42
6668;BME280;3370;47.712;9.082;2023-07-22T02:33:19;97033.38;;;15.12;80.63
6668;BME280;3370;47.712;9.082;2023-07-22T02:35:45;97031.72;;;15.11;80.95
6668;BME280;3370;47.712;9.082;2023-07-22T02:38:12;97024.66;;;15.13;80.67
6668;BME280;3370;47.712;9.082;2023-07-22T02:40:40;97026.75;;;15.21;79.52
6668;BME280;3370;47.712;9.082;2023-07-22T02:43:05;97026.13;;;15.17;79.28
6668;BME280;3370;47.712;9.082;2023-07-22T02:45:33;97024.75;;;15.11;79.88
6668;BME280;3370;47.712;9.082;2023-07-22T02:47:59;97029.97;;;14.97;80.23
6668;BME280;3370;47.712;9.082;2023-07-22T02:50:25;97030.97;;;14.82;81.31
6668;BME280;3370;47.712;9.082;2023-07-22T02:52:51;97028.91;;;14.87;80.07
6668;BME280;3370;47.712;9.082;2023-07-22T02:55:17;97026.50;;;14.84;79.82
6668;BME280;3370;47.712;9.082;2023-07-22T02:57:47;97024.69;;;14.71;80.62
6668;BME280;3370;47.712;9.082;2023-07-22T03:00:15;97020.44;;;14.56;81.46
6668;BME280;3370;47.712;9.082;2023-07-22T03:02:54;97024.53;;;14.60;81.49
6668;BME280;3370;47.712;9.082;2023-07-22T03:05:29;97021.66;;;14.50;81.89
6668;BME280;3370;47.712;9.082;2023-07-22T03:07:56;97019.91;;;14.36;82.58
6668;BME280;3370;47.712;9.082;2023-07-22T03:10:22;97020.72;;;14.37;83.51
6668;BME280;3370;47.712;9.082;2023-07-22T03:12:49;97016.56;;;14.34;84.02
6668;BME280;3370;47.712;9.082;2023-07-22T03:15:14;97012.69;;;14.42;84.32
6668;BME280;3370;47.712;9.082;2023-07-22T03:17:40;97013.25;;;14.47;84.32
6668;BME280;3370;47.712;9.082;2023-07-22T03:20:09;97011.09;;;14.53;84.15
6668;BME280;3370;47.712;9.082;2023-07-22T03:22:46;97020.78;;;14.50;84.35
6668;BME280;3370;47.712;9.082;2023-07-22T03:25:13;97014.81;;;14.49;84.72
6668;BME280;3370;47.712;9.082;2023-07-22T03:27:40;97020.06;;;14.48;85.49
6668;BME280;3370;47.712;9.082;2023-07-22T03:30:07;97008.06;;;14.47;85.62
6668;BME280;3370;47.712;9.082;2023-07-22T03:32:36;97008.81;;;14.49;86.11
6668;BME280;3370;47.712;9.082;2023-07-22T03:35:02;97013.59;;;14.55;85.89
6668;BME280;3370;47.712;9.082;2023-07-22T03:37:29;97009.16;;;14.43;86.57
6668;BME280;3370;47.712;9.082;2023-07-22T03:39:55;97011.38;;;14.49;86.53
6668;BME280;3370;47.712;9.082;2023-07-22T03:42:20;97016.66;;;14.47;86.39
6668;BME280;3370;47.712;9.082;2023-07-22T03:44:46;97025.53;;;14.43;86.83
6668;BME280;3370;47.712;9.082;2023-07-22T03:47:12;97019.25;;;14.47;86.66
6668;BME280;3370;47.712;9.082;2023-07-22T03:49:38;97025.69;;;14.54;86.02
6668;BME280;3370;47.712;9.082;2023-07-22T03:52:04;97019.72;;;14.54;86.42
6668;BME280;3370;47.712;9.082;2023-07-22T03:54:30;97019.72;;;14.54;86.77
6668;BME280;3370;47.712;9.082;2023-07-22T03:56:56;97022.28;;;14.54;86.63
6668;BME280;3370;47.712;9.082;2023-07-22T03:59:22;97023.03;;;14.56;86.78
6668;BME280;3370;47.712;9.082;2023-07-22T04:01:47;97019.72;;;14.54;87.58
6668;BME280;3370;47.712;9.082;2023-07-22T04:04:13;97032.72;;;14.52;88.69
6668;BME280;3370;47.712;9.082;2023-07-22T04:06:39;97025.06;;;14.51;89.74
6668;BME280;3370;47.712;9.082;2023-07-22T04:09:05;97029.94;;;14.55;90.58
6668;BME280;3370;47.712;9.082;2023-07-22T04:11:30;97029.28;;;14.52;91.93
6668;BME280;3370;47.712;9.082;2023-07-22T04:13:56;97030.16;;;14.52;92.48
6668;BME280;3370;47.712;9.082;2023-07-22T04:16:22;97026.53;;;14.41;93.91
6668;BME280;3370;47.712;9.082;2023-07-22T04:18:48;97031.06;;;14.37;94.68
6668;BME280;3370;47.712;9.082;2023-07-22T04:21:14;97030.06;;;14.40;94.80
6668;BME280;3370;47.712;9.082;2023-07-22T04:23:39;97026.53;;;14.41;93.81
6668;BME280;3370;47.712;9.082;2023-07-22T04:26:05;97020.25;;;14.45;92.68
6668;BME280;3370;47.712;9.082;2023-07-22T04:28:34;97020.88;;;14.48;91.22
6668;BME280;3370;47.712;9.082;2023-07-22T04:31:00;97027.25;;;14.57;89.76
6668;BME280;3370;47.712;9.082;2023-07-22T04:33:26;97036.31;;;14.50;90.23
6668;BME280;3370;47.712;9.082;2023-07-22T04:35:57;97042.44;;;14.49;90.43
6668;BME280;3370;47.712;9.082;2023-07-22T04:38:24;97048.16;;;14.54;90.75
6668;BME280;3370;47.712;9.082;2023-07-22T04:40:49;97038.56;;;14.56;90.97
6668;BME280;3370;47.712;9.082;2023-07-22T04:43:15;97041.50;;;14.50;91.70
6668;BME280;3370;47.712;9.082;2023-07-22T04:45:45;97039.19;;;14.45;91.78
6668;BME280;3370;47.712;9.082;2023-07-22T04:48:15;97043.16;;;14.51;92.27
6668;BME280;3370;47.712;9.082;2023-07-22T04:50:42;97044.72;;;14.53;91.68
6668;BME280;3370;47.712;9.082;2023-07-22T04:53:11;97036.16;;;14.53;91.57
6668;BME280;3370;47.712;9.082;2023-07-22T04:55:39;97042.47;;;14.63;91.61
6668;BME280;3370;47.712;9.082;2023-07-22T04:58:05;97054.63;;;14.61;92.62
6668;BME280;3370;47.712;9.082;2023-07-22T05:00:31;97053.00;;;14.60;92.95
6668;BME280;3370;47.712;9.082;2023-07-22T05:02:57;97054.03;;;14.57;93.69
6668;BME280;3370;47.712;9.082;2023-07-22T05:05:23;97059.03;;;14.45;94.44
6668;BME280;3370;47.712;9.082;2023-07-22T05:07:48;97065.72;;;14.49;94.66
6668;BME280;3370;47.712;9.082;2023-07-22T05:10:15;97053.34;;;14.54;93.63
6668;BME280;3370;47.712;9.082;2023-07-22T05:12:42;97066.53;;;14.49;94.36
6668;BME280;3370;47.712;9.082;2023-07-22T05:15:11;97064.03;;;14.48;94.25
6668;BME280;3370;47.712;9.082;2023-07-22T05:17:38;97060.34;;;14.52;94.86
6668;BME280;3370;47.712;9.082;2023-07-22T05:20:04;97069.59;;;14.56;94.93
6668;BME280;3370;47.712;9.082;2023-07-22T05:22:37;97064.16;;;14.61;94.72
6668;BME280;3370;47.712;9.082;2023-07-22T05:25:05;97069.63;;;14.70;93.99
6668;BME280;3370;47.712;9.082;2023-07-22T05:27:31;97067.38;;;14.79;93.70
6668;BME280;3370;47.712;9.082;2023-07-22T05:29:57;97068.47;;;14.89;92.51
6668;BME280;3370;47.712;9.082;2023-07-22T05:32:23;97071.03;;;15.03;91.30
6668;BME280;3370;47.712;9.082;2023-07-22T05:34:48;97068.38;;;15.05;91.31
6668;BME280;3370;47.712;9.082;2023-07-22T05:37:14;97076.28;;;15.16;90.72
6668;BME280;3370;47.712;9.082;2023-07-22T05:39:40;97069.97;;;15.20;90.54
6668;BME280;3370;47.712;9.082;2023-07-22T05:42:06;97077.25;;;15.28;89.21
6668;BME280;3370;47.712;9.082;2023-07-22T05:44:32;97073.75;;;15.29;88.93
6668;BME280;3370;47.712;9.082;2023-07-22T05:46:58;97073.75;;;15.29;89.04
6668;BME280;3370;47.712;9.082;2023-07-22T05:49:24;97078.94;;;15.29;89.67
6668;BME280;3370;47.712;9.082;2023-07-22T05:51:50;97080.94;;;15.38;89.52
6668;BME280;3370;47.712;9.082;2023-07-22T05:54:16;97075.56;;;15.41;89.94
6668;BME280;3370;47.712;9.082;2023-07-22T05:56:42;97084.38;;;15.51;89.52
6668;BME280;3370;47.712;9.082;2023-07-22T05:59:08;97087.59;;;15.55;90.15
6668;BME280;3370;47.712;9.082;2023-07-22T06:01:34;97088.66;;;15.52;90.30
6668;BME280;3370;47.712;9.082;2023-07-22T06:04:00;97088.97;;;15.61;90.17
6668;BME280;3370;47.712;9.082;2023-07-22T06:06:27;97091.19;;;15.67;88.81
6668;BME280;3370;47.712;9.082;2023-07-22T06:08:53;97098.19;;;15.79;86.92
6668;BME280;3370;47.712;9.082;2023-07-22T06:11:18;97103.00;;;15.71;87.27
6668;BME280;3370;47.712;9.082;2023-07-22T06:13:44;97100.31;;;15.72;87.19
6668;BME280;3370;47.712;9.082;2023-07-22T06:16:10;97099.69;;;15.69;88.24
6668;BME280;3370;47.712;9.082;2023-07-22T06:18:36;97101.72;;;15.64;89.31
6668;BME280;3370;47.712;9.082;2023-07-22T06:21:02;97103.94;;;15.70;89.03
6668;BME280;3370;47.712;9.082;2023-07-22T06:23:28;97106.97;;;15.77;88.13
6668;BME280;3370;47.712;9.082;2023-07-22T06:25:53;97105.97;;;15.79;88.09
6668;BME280;3370;47.712;9.082;2023-07-22T06:28:19;97095.19;;;15.85;88.10
6668;BME280;3370;47.712;9.082;2023-07-22T06:30:45;97102.06;;;15.86;87.71
6668;BME280;3370;47.712;9.082;2023-07-22T06:33:11;97111.56;;;15.86;88.83
6668;BME280;3370;47.712;9.082;2023-07-22T06:35:36;97106.41;;;15.99;89.22
6668;BME280;3370;47.712;9.082;2023-07-22T06:38:02;97111.31;;;16.16;89.51
6668;BME280;3370;47.712;9.082;2023-07-22T06:40:28;97103.34;;;16.19;89.42
6668;BME280;3370;47.712;9.082;2023-07-22T06:42:54;97106.84;;;16.18;89.58
6668;BME280;3370;47.712;9.082;2023-07-22T06:45:20;97107.59;;;16.33;90.65
6668;BME280;3370;47.712;9.082;2023-07-22T06:47:46;97109.78;;;16.26;91.07
6668;BME280;3370;47.712;9.082;2023-07-22T06:50:12;97115.69;;;16.28;91.34
6668;BME280;3370;47.712;9.082;2023-07-22T06:52:38;97111.03;;;16.34;90.66
6668;BME280;3370;47.712;9.082;2023-07-22T06:55:05;97108.34;;;16.48;89.79
6668;BME280;3370;47.712;9.082;2023-07-22T06:57:30;97107.28;;;16.63;89.01
6668;BME280;3370;47.712;9.082;2023-07-22T06:59:57;97107.59;;;16.72;89.06
6668;BME280;3370;47.712;9.082;2023-07-22T07:02:23;97117.66;;;16.63;90.67
6668;BME280;3370;47.712;9.082;2023-07-22T07:04:49;97114.13;;;16.64;91.46
6668;BME280;3370;47.712;9.082;2023-07-22T07:07:15;97117.03;;;16.73;91.17
6668;BME280;3370;47.712;9.082;2023-07-22T07:09:42;97110.47;;;16.80;90.01
6668;BME280;3370;47.712;9.082;2023-07-22T07:12:08;97116.63;;;16.79;89.91
6668;BME280;3370;47.712;9.082;2023-07-22T07:14:34;97114.41;;;16.73;91.79
6668;BME280;3370;47.712;9.082;2023-07-22T07:17:01;97116.38;;;16.82;89.91
6668;BME280;3370;47.712;9.082;2023-07-22T07:19:28;97114.34;;;16.87;91.87
6668;BME280;3370;47.712;9.082;2023-07-22T07:21:54;97117.34;;;16.94;91.56
6668;BME280;3370;47.712;9.082;2023-07-22T07:24:20;97106.97;;;17.18;91.50
6668;BME280;3370;47.712;9.082;2023-07-22T07:26:46;97116.59;;;17.04;90.63
6668;BME280;3370;47.712;9.082;2023-07-22T07:29:12;97112.84;;;17.09;91.65
6668;BME280;3370;47.712;9.082;2023-07-22T07:31:38;97112.78;;;17.21;91.63
6668;BME280;3370;47.712;9.082;2023-07-22T07:34:04;97116.09;;;17.23;91.76
6668;BME280;3370;47.712;9.082;2023-07-22T07:36:31;97117.22;;;17.32;91.50
6668;BME280;3370;47.712;9.082;2023-07-22T07:38:57;97112.34;;;17.40;91.92
6668;BME280;3370;47.712;9.082;2023-07-22T07:41:23;97118.09;;;17.57;92.23
6668;BME280;3370;47.712;9.082;2023-07-22T07:43:49;97114.63;;;17.80;89.91
6668;BME280;3370;47.712;9.082;2023-07-22T07:46:21;97112.53;;;17.86;87.99
6668;BME280;3370;47.712;9.082;2023-07-22T07:48:51;97117.00;;;18.08;86.83
6668;BME280;3370;47.712;9.082;2023-07-22T07:51:19;97116.84;;;17.98;85.94
6668;BME280;3370;47.712;9.082;2023-07-22T07:53:46;97115.19;;;17.97;84.78
6668;BME280;3370;47.712;9.082;2023-07-22T07:56:16;97117.31;;;18.03;85.06
6668;BME280;3370;47.712;9.082;2023-07-22T07:58:44;97116.16;;;18.07;85.67
6668;BME280;3370;47.712;9.082;2023-07-22T08:01:10;97114.63;;;18.16;86.15
6668;BME280;3370;47.712;9.082;2023-07-22T08:03:37;97121.66;;;18.27;83.97
6668;BME280;3370;47.712;9.082;2023-07-22T08:06:04;97117.88;;;18.31;83.19
6668;BME280;3370;47.712;9.082;2023-07-22T08:08:30;97118.84;;;18.41;83.17
6668;BME280;3370;47.712;9.082;2023-07-22T08:11:12;97113.88;;;18.61;81.83
6668;BME280;3370;47.712;9.082;2023-07-22T08:13:43;97110.94;;;18.76;78.92
6668;BME280;3370;47.712;9.082;2023-07-22T08:16:11;97111.06;;;18.98;79.93
6668;BME280;3370;47.712;9.082;2023-07-22T08:18:38;97107.53;;;18.87;76.04
6668;BME280;3370;47.712;9.082;2023-07-22T08:21:06;97113.19;;;18.92;77.05
6668;BME280;3370;47.712;9.082;2023-07-22T08:23:33;97104.69;;;18.90;75.13
6668;BME280;3370;47.712;9.082;2023-07-22T08:25:59;97107.75;;;18.95;72.83
6668;BME280;3370;47.712;9.082;2023-07-22T08:28:25;97107.25;;;19.02;73.54
6668;BME280;3370;47.712;9.082;2023-07-22T08:30:55;97111.50;;;19.14;72.55
6668;BME280;3370;47.712;9.082;2023-07-22T08:33:22;97110.47;;;19.17;72.11
6668;BME280;3370;47.712;9.082;2023-07-22T08:35:50;97108.41;;;19.31;72.03
6668;BME280;3370;47.712;9.082;2023-07-22T08:38:16;97105.78;;;19.43;72.40
6668;BME280;3370;47.712;9.082;2023-07-22T08:40:42;97112.69;;;19.65;69.68
6668;BME280;3370;47.712;9.082;2023-07-22T08:43:10;97107.34;;;19.66;70.38
6668;BME280;3370;47.712;9.082;2023-07-22T08:45:38;97105.69;;;19.77;71.18
6668;BME280;3370;47.712;9.082;2023-07-22T08:48:06;97105.13;;;19.94;70.00
6668;BME280;3370;47.712;9.082;2023-07-22T08:50:41;97112.78;;;20.28;70.94
6668;BME280;3370;47.712;9.082;2023-07-22T08:53:11;97113.28;;;20.22;68.44
6668;BME280;3370;47.712;9.082;2023-07-22T08:55:38;97114.06;;;20.13;68.93
6668;BME280;3370;47.712;9.082;2023-07-22T08:58:10;97114.06;;;20.13;68.29
6668;BME280;3370;47.712;9.082;2023-07-22T09:00:38;97116.34;;;20.27;68.25
6668;BME280;3370;47.712;9.082;2023-07-22T09:03:05;97115.19;;;20.41;66.79
6668;BME280;3370;47.712;9.082;2023-07-22T09:05:35;97112.66;;;20.51;65.57
6668;BME280;3370;47.712;9.082;2023-07-22T09:08:04;97115.94;;;20.53;62.79
6668;BME280;3370;47.712;9.082;2023-07-22T09:10:32;97107.84;;;20.56;61.83
6668;BME280;3370;47.712;9.082;2023-07-22T09:13:00;97105.63;;;20.72;57.43
6668;BME280;3370;47.712;9.082;2023-07-22T09:15:27;97106.16;;;20.76;61.13
6668;BME280;3370;47.712;9.082;2023-07-22T09:17:53;97104.88;;;21.01;60.12
6668;BME280;3370;47.712;9.082;2023-07-22T09:20:22;97104.84;;;20.81;61.75
6668;BME280;3370;47.712;9.082;2023-07-22T09:22:51;97108.16;;;20.93;62.85
6668;BME280;3370;47.712;9.082;2023-07-22T09:25:25;97113.13;;;20.96;59.27
6668;BME280;3370;47.712;9.082;2023-07-22T09:27:54;97113.06;;;20.56;58.54
6668;BME280;3370;47.712;9.082;2023-07-22T09:30:32;97107.00;;;20.76;59.61
6668;BME280;3370;47.712;9.082;2023-07-22T09:33:02;97101.25;;;20.82;57.86
6668;BME280;3370;47.712;9.082;2023-07-22T09:35:49;97103.28;;;20.79;57.07
6668;BME280;3370;47.712;9.082;2023-07-22T09:38:25;97099.97;;;21.17;56.47
6668;BME280;3370;47.712;9.082;2023-07-22T09:40:52;97104.06;;;21.10;56.23
6668;BME280;3370;47.712;9.082;2023-07-22T09:43:18;97095.22;;;21.32;57.54
6668;BME280;3370;47.712;9.082;2023-07-22T09:45:47;97102.13;;;21.02;55.89
6668;BME280;3370;47.712;9.082;2023-07-22T09:48:14;97104.72;;;20.93;55.24
6668;BME280;3370;47.712;9.082;2023-07-22T09:50:39;97093.97;;;21.27;56.26
6668;BME280;3370;47.712;9.082;2023-07-22T09:53:06;97094.66;;;21.38;56.05
6668;BME280;3370;47.712;9.082;2023-07-22T09:55:33;97089.81;;;21.34;53.97
6668;BME280;3370;47.712;9.082;2023-07-22T09:58:04;97094.25;;;21.43;54.90
6668;BME280;3370;47.712;9.082;2023-07-22T10:00:37;97086.72;;;21.50;53.16
6668;BME280;3370;47.712;9.082;2023-07-22T10:03:10;97083.00;;;21.72;52.66
6668;BME280;3370;47.712;9.082;2023-07-22T10:05:38;97087.94;;;21.75;53.31
6668;BME280;3370;47.712;9.082;2023-07-22T10:08:06;97086.16;;;21.75;51.49
6668;BME280;3370;47.712;9.082;2023-07-22T10:10:40;97090.72;;;21.83;51.54
6668;BME280;3370;47.712;9.082;2023-07-22T10:13:08;97083.28;;;21.88;52.02
6668;BME280;3370;47.712;9.082;2023-07-22T10:15:34;97086.03;;;21.87;49.68
6668;BME280;3370;47.712;9.082;2023-07-22T10:18:02;97079.13;;;21.95;48.79
6668;BME280;3370;47.712;9.082;2023-07-22T10:20:29;97078.72;;;22.00;49.29
6668;BME280;3370;47.712;9.082;2023-07-22T10:22:55;97076.19;;;22.28;46.68
6668;BME280;3370;47.712;9.082;2023-07-22T10:25:22;97079.50;;;22.20;47.59
6668;BME280;3370;47.712;9.082;2023-07-22T10:27:51;97076.06;;;22.39;48.42
6668;BME280;3370;47.712;9.082;2023-07-22T10:30:18;97070.56;;;22.32;47.63
6668;BME280;3370;47.712;9.082;2023-07-22T10:32:51;97057.75;;;22.57;48.40
6668;BME280;3370;47.712;9.082;2023-07-22T10:37:55;97069.44;;;23.00;49.10
6668;BME280;3370;47.712;9.082;2023-07-22T10:43:03;97055.22;;;22.75;45.58
6668;BME280;3370;47.712;9.082;2023-07-22T10:45:31;97054.28;;;22.94;46.23
6668;BME280;3370;47.712;9.082;2023-07-22T10:48:12;97055.50;;;23.27;46.11
6668;BME280;3370;47.712;9.082;2023-07-22T10:50:49;97048.78;;;22.97;45.30
6668;BME280;3370;47.712;9.082;2023-07-22T10:56:16;97038.47;;;23.49;45.43
6668;BME280;3370;47.712;9.082;2023-07-22T11:04:25;97031.50;;;23.58;45.26
6668;BME280;3370;47.712;9.082;2023-07-22T11:07:05;97033.22;;;23.49;44.27
6668;BME280;3370;47.712;9.082;2023-07-22T11:12:01;97027.78;;;24.31;43.34
6668;BME280;3370;47.712;9.082;2023-07-22T11:14:39;97020.75;;;24.66;40.04
6668;BME280;3370;47.712;9.082;2023-07-22T11:17:07;97011.13;;;24.83;41.37
6668;BME280;3370;47.712;9.082;2023-07-22T11:19:37;97011.78;;;24.85;40.07
6668;BME280;3370;47.712;9.082;2023-07-22T11:22:04;97023.34;;;24.32;41.53
6668;BME280;3370;47.712;9.082;2023-07-22T11:24:35;97010.56;;;24.63;41.40
6668;BME280;3370;47.712;9.082;2023-07-22T11:27:04;97007.47;;;24.76;42.96
6668;BME280;3370;47.712;9.082;2023-07-22T11:29:31;97013.59;;;24.50;41.20
6668;BME280;3370;47.712;9.082;2023-07-22T11:31:57;96997.06;;;24.58;42.13
6668;BME280;3370;47.712;9.082;2023-07-22T11:34:24;97008.63;;;24.39;43.11
6668;BME280;3370;47.712;9.082;2023-07-22T11:36:52;97007.00;;;24.46;41.73
6668;BME280;3370;47.712;9.082;2023-07-22T11:39:20;96999.31;;;24.95;43.06
6668;BME280;3370;47.712;9.082;2023-07-22T11:41:48;97004.03;;;25.42;40.83
6668;BME280;3370;47.712;9.082;2023-07-22T11:44:16;97005.91;;;24.99;40.76
6668;BME280;3370;47.712;9.082;2023-07-22T11:46:56;96996.94;;;24.67;41.00
6668;BME280;3370;47.712;9.082;2023-07-22T11:49:24;96996.34;;;24.90;42.87
6668;BME280;3370;47.712;9.082;2023-07-22T11:51:53;96995.03;;;24.94;43.19
6668;BME280;3370;47.712;9.082;2023-07-22T11:54:21;96999.34;;;25.12;41.69
6668;BME280;3370;47.712;9.082;2023-07-22T11:56:47;96988.88;;;25.28;41.56
6668;BME280;3370;47.712;9.082;2023-07-22T11:59:13;96990.69;;;25.44;40.38
6668;BME280;3370;47.712;9.082;2023-07-22T12:01:39;96989.66;;;25.12;41.74
6668;BME280;3370;47.712;9.082;2023-07-22T12:04:12;96994.41;;;25.09;41.12
6668;BME280;3370;47.712;9.082;2023-07-22T12:06:38;96993.41;;;25.01;40.33
6668;BME280;3370;47.712;9.082;2023-07-22T12:09:06;96979.03;;;25.38;40.72
6668;BME280;3370;47.712;9.082;2023-07-22T12:11:33;96985.28;;;25.46;39.51
6668;BME280;3370;47.712;9.082;2023-07-22T12:14:13;96978.13;;;25.05;41.35
6668;BME280;3370;47.712;9.082;2023-07-22T12:16:41;96985.00;;;24.90;39.52
6668;BME280;3370;47.712;9.082;2023-07-22T12:19:09;96973.75;;;25.55;41.72
6668;BME280;3370;47.712;9.082;2023-07-22T12:21:35;96978.03;;;25.31;41.10
6668;BME280;3370;47.712;9.082;2023-07-22T12:24:01;96972.44;;;25.34;40.55
6668;BME280;3370;47.712;9.082;2023-07-22T12:26:28;96964.31;;;25.19;39.82
6668;BME280;3370;47.712;9.082;2023-07-22T12:28:54;96969.06;;;26.23;38.14
6668;BME280;3370;47.712;9.082;2023-07-22T12:31:20;96971.25;;;26.02;38.58
6668;BME280;3370;47.712;9.082;2023-07-22T12:33:45;96977.53;;;25.93;39.51
6668;BME280;3370;47.712;9.082;2023-07-22T12:36:11;96965.81;;;25.79;38.28
6668;BME280;3370;47.712;9.082;2023-07-22T12:38:37;96964.19;;;25.70;39.53
6668;BME280;3370;47.712;9.082;2023-07-22T12:41:03;96964.53;;;25.51;39.31
6668;BME280;3370;47.712;9.082;2023-07-22T12:43:29;96968.97;;;25.75;37.67
6668;BME280;3370;47.712;9.082;2023-07-22T12:45:56;96952.06;;;25.36;40.05
6668;BME280;3370;47.712;9.082;2023-07-22T12:48:22;96953.75;;;26.18;40.40
6668;BME280;3370;47.712;9.082;2023-07-22T12:50:50;96954.25;;;26.22;35.70
6668;BME280;3370;47.712;9.082;2023-07-22T12:53:16;96960.06;;;25.76;37.52
6668;BME280;3370;47.712;9.082;2023-07-22T12:55:42;96945.38;;;26.06;38.06
6668;BME280;3370;47.712;9.082;2023-07-22T12:58:08;96945.72;;;26.11;37.79
6668;BME280;3370;47.712;9.082;2023-07-22T13:00:34;96942.91;;;26.05;39.71
6668;BME280;3370;47.712;9.082;2023-07-22T13:03:00;96950.38;;;25.76;38.35
6668;BME280;3370;47.712;9.082;2023-07-22T13:05:26;96940.94;;;26.46;36.30
6668;BME280;3370;47.712;9.082;2023-07-22T13:07:52;96951.56;;;26.30;36.20
6668;BME280;3370;47.712;9.082;2023-07-22T13:10:19;96940.34;;;26.75;37.55
6668;BME280;3370;47.712;9.082;2023-07-22T13:12:46;96946.25;;;27.09;35.18
6668;BME280;3370;47.712;9.082;2023-07-22T13:15:12;96943.34;;;27.19;33.71
6668;BME280;3370;47.712;9.082;2023-07-22T13:17:38;96945.19;;;26.64;35.43
6668;BME280;3370;47.712;9.082;2023-07-22T13:20:05;96942.16;;;26.75;34.74
6668;BME280;3370;47.712;9.082;2023-07-22T13:22:35;96938.78;;;26.58;35.09
6668;BME280;3370;47.712;9.082;2023-07-22T13:25:03;96941.13;;;25.80;36.96
6668;BME280;3370;47.712;9.082;2023-07-22T13:27:29;96946.13;;;25.67;37.15
6668;BME280;3370;47.712;9.082;2023-07-22T13:29:55;96937.41;;;26.31;37.06
6668;BME280;3370;47.712;9.082;2023-07-22T13:32:21;96938.16;;;25.92;36.56
6668;BME280;3370;47.712;9.082;2023-07-22T13:34:47;96935.81;;;26.05;35.01
6668;BME280;3370;47.712;9.082;2023-07-22T13:37:13;96931.66;;;26.27;35.91
6668;BME280;3370;47.712;9.082;2023-07-22T13:39:39;96935.31;;;26.18;37.01